createdAt,value
2019-04-14T00:01:39.667Z,8.10
2019-04-14T00:04:25.467Z,8.57
2019-04-14T00:06:54.795Z,8.33
2019-04-14T00:09:25.037Z,9.23
2019-04-14T00:11:54.783Z,9.33
2019-04-14T00:14:25.037Z,8.90
2019-04-14T00:16:55.234Z,8.60
2019-04-14T00:19:24.127Z,8.57
2019-04-14T00:21:52.899Z,9.20
2019-04-14T00:24:22.704Z,9.23
2019-04-14T00:26:51.612Z,8.30
2019-04-14T00:29:21.660Z,8.63
2019-04-14T00:31:52.144Z,8.53
2019-04-14T00:34:39.893Z,7.87
2019-04-14T00:37:28.020Z,9.13
2019-04-14T00:40:01.966Z,8.80
2019-04-14T00:42:38.792Z,8.67
2019-04-14T00:45:15.466Z,8.83
2019-04-14T00:47:59.487Z,8.83
2019-04-14T00:50:21.140Z,7.83
2019-04-14T00:52:50.182Z,8.90
2019-04-14T00:55:18.963Z,8.30
2019-04-14T00:57:48.672Z,8.87
2019-04-14T01:00:19.283Z,7.90
2019-04-14T01:02:49.391Z,8.10
2019-04-14T01:05:19.483Z,7.90
2019-04-14T01:07:48.357Z,7.90
2019-04-14T01:10:17.246Z,7.90
2019-04-14T01:12:47.391Z,7.97
2019-04-14T01:15:16.418Z,7.57
2019-04-14T01:17:46.102Z,7.93
2019-04-14T01:20:15.081Z,7.83
2019-04-14T01:22:44.581Z,8.57
2019-04-14T01:25:13.494Z,7.67
2019-04-14T01:27:42.898Z,7.80
2019-04-14T01:30:13.338Z,7.77
2019-04-14T01:32:42.152Z,8.50
2019-04-14T01:35:11.746Z,8.80
2019-04-14T01:37:41.803Z,8.07
2019-04-14T01:40:11.984Z,7.80
2019-04-14T01:42:42.075Z,7.97
2019-04-14T01:45:12.842Z,7.97
2019-04-14T01:47:42.048Z,8.37
2019-04-14T01:50:11.044Z,8.27
2019-04-14T01:52:48.669Z,8.17
2019-04-14T01:55:26.626Z,7.40
2019-04-14T01:58:12.120Z,7.47
2019-04-14T02:00:52.985Z,8.13
2019-04-14T02:03:21.862Z,7.77
2019-04-14T02:05:51.701Z,8.90
2019-04-14T02:08:21.882Z,8.10
2019-04-14T02:10:52.051Z,7.63
2019-04-14T02:13:20.941Z,8.40
2019-04-14T02:15:50.648Z,7.93
2019-04-14T02:18:20.699Z,7.97
2019-04-14T02:20:51.071Z,8.30
2019-04-14T02:23:21.386Z,8.60
2019-04-14T02:25:51.407Z,8.80
2019-04-14T02:28:20.368Z,8.37
2019-04-14T02:31:00.100Z,9.00
2019-04-14T02:33:44.758Z,8.20
2019-04-14T02:36:21.978Z,8.07
2019-04-14T02:41:18.753Z,8.00
2019-04-14T02:43:54.612Z,8.67
2019-04-14T02:48:51.738Z,8.87
2019-04-14T02:51:20.817Z,8.60
2019-04-14T02:56:25.178Z,8.80
2019-04-14T02:58:52.349Z,8.53
2019-04-14T03:01:23.251Z,8.40
2019-04-14T03:03:50.672Z,8.60
2019-04-14T03:06:21.641Z,7.87
2019-04-14T03:09:04.455Z,8.30
2019-04-14T03:11:24.520Z,8.70
2019-04-14T03:13:51.634Z,8.77
2019-04-14T03:16:35.516Z,8.80
2019-04-14T03:19:27.557Z,8.87
2019-04-14T03:22:17.973Z,9.03
2019-04-14T03:24:42.096Z,9.20
2019-04-14T03:27:45.780Z,7.80
2019-04-14T03:30:34.039Z,8.27
2019-04-14T03:35:37.779Z,9.13
2019-04-14T03:40:09.959Z,8.90
2019-04-14T03:42:43.794Z,9.23
2019-04-14T03:45:19.810Z,9.03
2019-04-14T03:47:54.353Z,8.53
2019-04-14T03:50:16.186Z,9.20
2019-04-14T03:52:53.308Z,8.97
2019-04-14T03:55:05.939Z,8.63
2019-04-14T03:57:21.498Z,8.50
2019-04-14T03:59:50.512Z,8.47
2019-04-14T04:02:20.358Z,9.23
2019-04-14T04:04:49.405Z,8.73
2019-04-14T04:07:19.244Z,9.30
2019-04-14T04:09:58.646Z,9.17
2019-04-14T04:12:27.456Z,9.00
2019-04-14T04:14:57.493Z,9.40
2019-04-14T04:17:49.465Z,9.00
2019-04-14T04:20:56.643Z,8.70
2019-04-14T04:23:32.098Z,9.10
2019-04-14T04:26:10.427Z,9.37
2019-04-14T04:28:54.031Z,9.57
2019-04-14T04:31:51.107Z,9.00
2019-04-14T04:34:51.323Z,8.90
2019-04-14T04:37:26.306Z,9.67
2019-04-14T04:39:56.150Z,9.47
2019-04-14T04:42:25.080Z,9.17
2019-04-14T04:44:55.239Z,9.47
2019-04-14T04:47:25.221Z,9.17
2019-04-14T04:49:56.126Z,9.40
2019-04-14T04:52:25.751Z,9.03
2019-04-14T04:54:55.835Z,9.73
2019-04-14T04:57:24.867Z,9.53
2019-04-14T04:59:53.944Z,9.53
2019-04-14T05:02:22.877Z,9.50
2019-04-14T05:04:52.655Z,9.03
2019-04-14T05:07:23.024Z,11.30
2019-04-14T05:10:08.746Z,9.30
2019-04-14T05:12:54.529Z,9.73
2019-04-14T05:15:38.010Z,9.73
2019-04-14T05:18:07.207Z,9.70
2019-04-14T05:20:36.150Z,9.80
2019-04-14T05:23:05.907Z,9.93
2019-04-14T05:25:35.007Z,9.97
2019-04-14T05:28:04.829Z,9.17
2019-04-14T05:30:34.917Z,9.80
2019-04-14T05:33:03.810Z,10.13
2019-04-14T05:35:33.394Z,9.80
2019-04-14T05:38:02.227Z,10.30
2019-04-14T05:40:32.049Z,10.27
2019-04-14T05:43:00.928Z,10.10
2019-04-14T05:45:30.632Z,10.37
2019-04-14T05:47:59.576Z,9.77
2019-04-14T05:50:29.265Z,10.33
2019-04-14T05:52:58.194Z,10.17
2019-04-14T05:55:26.984Z,9.87
2019-04-14T05:57:56.813Z,10.30
2019-04-14T06:00:25.862Z,10.17
2019-04-14T06:02:55.190Z,10.90
2019-04-14T06:05:25.272Z,10.60
2019-04-14T06:07:55.548Z,11.37
2019-04-14T06:10:24.695Z,10.87
2019-04-14T06:12:53.406Z,11.27
2019-04-14T06:15:41.408Z,10.93
2019-04-14T06:18:10.144Z,11.90
2019-04-14T06:20:38.900Z,11.60
2019-04-14T06:23:08.178Z,11.30
2019-04-14T06:25:36.978Z,11.13
2019-04-14T06:28:05.716Z,12.37
2019-04-14T06:31:09.131Z,11.67
2019-04-14T06:33:56.105Z,11.43
2019-04-14T06:36:50.221Z,11.80
2019-04-14T06:39:27.958Z,12.20
2019-04-14T06:41:56.798Z,11.57
2019-04-14T06:44:25.605Z,11.93
2019-04-14T06:46:54.348Z,12.23
2019-04-14T06:49:23.171Z,12.20
2019-04-14T06:51:51.919Z,12.77
2019-04-14T06:54:20.895Z,12.77
2019-04-14T06:56:49.807Z,12.30
2019-04-14T06:59:18.608Z,12.53
2019-04-14T07:01:47.421Z,11.97
2019-04-14T07:04:35.503Z,12.73
2019-04-14T07:07:04.324Z,12.47
2019-04-14T07:09:33.434Z,13.20
2019-04-14T07:12:02.386Z,13.27
2019-04-14T07:14:31.993Z,12.67
2019-04-14T07:17:00.942Z,13.43
2019-04-14T07:19:29.817Z,14.33
2019-04-14T07:21:58.676Z,12.83
2019-04-14T07:24:27.548Z,13.50
2019-04-14T07:26:56.410Z,13.53
2019-04-14T07:29:26.861Z,14.00
2019-04-14T07:32:12.179Z,12.70
2019-04-14T07:34:50.923Z,14.57
2019-04-14T07:37:32.728Z,13.00
2019-04-14T07:40:06.808Z,13.97
2019-04-14T07:42:54.843Z,14.20
2019-04-14T07:45:27.695Z,14.50
2019-04-14T07:48:08.429Z,14.83
2019-04-14T07:51:02.334Z,15.17
2019-04-14T07:53:43.427Z,14.97
2019-04-14T07:56:18.357Z,15.17
2019-04-14T07:59:10.324Z,15.53
2019-04-14T08:01:52.409Z,16.00
2019-04-14T08:04:33.208Z,15.47
2019-04-14T08:07:21.339Z,16.70
2019-04-14T08:09:50.198Z,16.50
2019-04-14T08:12:19.216Z,16.40
2019-04-14T08:14:48.014Z,17.37
2019-04-14T08:17:16.928Z,17.67
2019-04-14T08:19:45.775Z,17.10
2019-04-14T08:22:14.650Z,17.53
2019-04-14T08:24:46.243Z,17.40
2019-04-14T08:27:15.167Z,17.37
2019-04-14T08:29:44.330Z,17.40
2019-04-14T08:32:13.230Z,15.97
2019-04-14T08:34:42.036Z,16.53
2019-04-14T08:37:10.992Z,16.87
2019-04-14T08:39:39.767Z,16.27
2019-04-14T08:42:30.765Z,16.17
2019-04-14T08:45:03.807Z,16.23
2019-04-14T08:47:50.610Z,14.53
2019-04-14T08:50:38.891Z,15.27
2019-04-14T08:53:04.992Z,16.27
2019-04-14T08:55:50.641Z,16.43
2019-04-14T08:58:34.967Z,16.67
2019-04-14T09:01:21.612Z,17.70
2019-04-14T09:03:57.628Z,16.63
2019-04-14T09:06:34.324Z,16.67
2019-04-14T09:09:12.349Z,17.67
2019-04-14T09:11:46.207Z,18.03
2019-04-14T09:14:15.033Z,16.93
2019-04-14T09:16:43.851Z,16.13
2019-04-14T09:19:12.728Z,17.60
2019-04-14T09:21:41.534Z,17.17
2019-04-14T09:24:10.412Z,17.13
2019-04-14T09:26:39.242Z,17.23
2019-04-14T09:29:08.042Z,17.30
2019-04-14T09:31:36.923Z,17.43
2019-04-14T09:34:05.762Z,16.63
2019-04-14T09:36:34.576Z,16.10
2019-04-14T09:39:05.247Z,15.67
2019-04-14T09:41:34.105Z,17.23
2019-04-14T09:44:03.006Z,16.90
2019-04-14T09:46:31.810Z,17.13
2019-04-14T09:49:00.753Z,17.17
2019-04-14T09:51:29.669Z,16.90
2019-04-14T09:53:58.562Z,16.17
2019-04-14T09:56:27.480Z,15.10
2019-04-14T09:58:56.367Z,13.23
2019-04-14T10:01:25.306Z,12.13
2019-04-14T10:03:54.241Z,11.50
2019-04-14T10:06:23.046Z,11.43
2019-04-14T10:08:52.544Z,10.57
2019-04-14T10:11:21.399Z,10.33
2019-04-14T10:13:50.203Z,10.27
2019-04-14T10:16:19.037Z,10.30
2019-04-14T10:18:47.913Z,10.90
2019-04-14T10:21:17.934Z,11.90
2019-04-14T10:23:47.076Z,10.60
2019-04-14T10:26:16.092Z,11.03
2019-04-14T10:28:45.802Z,10.43
2019-04-14T10:31:14.561Z,10.30
2019-04-14T10:33:43.395Z,10.63
2019-04-14T10:36:12.119Z,9.93
2019-04-14T10:38:40.985Z,10.67
2019-04-14T10:41:09.743Z,11.73
2019-04-14T10:43:38.480Z,11.47
2019-04-14T10:46:07.220Z,11.97
2019-04-14T10:48:36.030Z,11.97
2019-04-14T10:51:04.916Z,12.30
2019-04-14T10:53:33.770Z,12.77
2019-04-14T10:56:02.691Z,11.60
2019-04-14T10:58:31.566Z,12.27
2019-04-14T11:01:00.393Z,12.60
2019-04-14T11:03:29.238Z,12.67
2019-04-14T11:06:15.205Z,12.97
2019-04-14T11:08:44.127Z,11.93
2019-04-14T11:11:13.123Z,10.50
2019-04-14T11:13:41.935Z,10.67
2019-04-14T11:16:10.734Z,10.93
2019-04-14T11:18:39.562Z,11.20
2019-04-14T11:21:08.678Z,11.87
2019-04-14T11:23:37.858Z,11.73
2019-04-14T11:26:06.897Z,11.67
2019-04-14T11:28:40.595Z,11.67
2019-04-14T11:31:09.668Z,11.80
2019-04-14T11:33:56.524Z,11.80
2019-04-14T11:36:43.252Z,12.43
2019-04-14T11:39:14.063Z,11.93
2019-04-14T11:41:43.061Z,12.53
2019-04-14T11:44:11.972Z,13.07
2019-04-14T11:46:40.786Z,11.77
2019-04-14T11:49:09.676Z,12.53
2019-04-14T11:51:40.529Z,13.90
2019-04-14T11:54:09.361Z,13.67
2019-04-14T11:56:57.361Z,13.63
2019-04-14T11:59:37.958Z,14.27
2019-04-14T12:02:17.252Z,14.00
2019-04-14T12:04:54.707Z,13.80
2019-04-14T12:07:48.651Z,14.40
2019-04-14T12:10:21.615Z,14.20
2019-04-14T12:12:50.380Z,14.07
2019-04-14T12:15:19.273Z,14.63
2019-04-14T12:17:48.060Z,14.93
2019-04-14T12:20:16.975Z,14.93
2019-04-14T12:22:45.825Z,15.30
2019-04-14T12:25:14.859Z,15.47
2019-04-14T12:27:44.347Z,16.27
2019-04-14T12:30:13.833Z,15.50
2019-04-14T12:32:42.693Z,16.33
2019-04-14T12:35:12.697Z,16.77
2019-04-14T12:37:43.225Z,16.93
2019-04-14T12:40:12.288Z,15.77
2019-04-14T12:42:58.675Z,17.20
2019-04-14T12:45:52.720Z,17.83
2019-04-14T12:48:36.772Z,17.83
2019-04-14T12:51:10.062Z,16.73
2019-04-14T12:53:38.937Z,17.17
2019-04-14T12:56:07.758Z,17.30
2019-04-14T12:58:58.467Z,17.97
2019-04-14T13:01:29.529Z,18.63
2019-04-14T13:03:58.319Z,18.97
2019-04-14T13:06:27.036Z,19.80
2019-04-14T13:08:55.830Z,19.07
2019-04-14T13:11:24.615Z,19.60
2019-04-14T13:13:53.436Z,19.33
2019-04-14T13:16:22.390Z,19.80
2019-04-14T13:18:51.199Z,19.57
2019-04-14T13:21:20.041Z,19.10
2019-04-14T13:23:49.035Z,20.13
2019-04-14T13:26:17.877Z,21.00
2019-04-14T13:28:46.664Z,19.40
2019-04-14T13:31:15.828Z,21.07
2019-04-14T13:33:44.619Z,20.83
2019-04-14T13:36:13.962Z,21.37
2019-04-14T13:39:02.069Z,20.77
2019-04-14T13:41:30.867Z,22.10
2019-04-14T13:43:59.733Z,21.73
2019-04-14T13:46:28.553Z,21.20
2019-04-14T13:48:57.325Z,22.13
2019-04-14T13:51:26.073Z,22.70
2019-04-14T13:53:54.998Z,21.83
2019-04-14T13:56:23.890Z,21.47
2019-04-14T13:58:52.985Z,22.87
2019-04-14T14:01:22.231Z,23.10
2019-04-14T14:03:51.278Z,22.20
2019-04-14T14:06:20.078Z,22.17
2019-04-14T14:08:49.226Z,21.60
2019-04-14T14:11:27.310Z,22.27
2019-04-14T14:14:05.163Z,21.03
2019-04-14T14:16:53.084Z,22.20
2019-04-14T14:19:32.938Z,23.27
2019-04-14T14:22:15.102Z,21.80
2019-04-14T14:25:06.162Z,22.50
2019-04-14T14:27:35.044Z,21.77
2019-04-14T14:30:05.594Z,20.47
2019-04-14T14:32:38.424Z,21.87
2019-04-14T14:35:08.106Z,23.13
2019-04-14T14:37:36.908Z,23.50
2019-04-14T14:40:06.808Z,21.77
2019-04-14T14:42:35.630Z,22.23
2019-04-14T14:45:24.415Z,21.53
2019-04-14T14:48:10.971Z,25.57
2019-04-14T14:50:59.035Z,22.57
2019-04-14T14:53:27.962Z,21.90
2019-04-14T14:55:57.463Z,22.77
2019-04-14T14:58:26.279Z,22.70
2019-04-14T15:00:55.762Z,23.40
2019-04-14T15:03:24.614Z,22.83
2019-04-14T15:05:53.546Z,22.67
2019-04-14T15:08:22.372Z,22.63
2019-04-14T15:10:51.304Z,22.00
2019-04-14T15:13:20.118Z,21.63
2019-04-14T15:15:49.027Z,21.70
2019-04-14T15:18:18.272Z,21.40
2019-04-14T15:20:49.694Z,21.13
2019-04-14T15:23:24.741Z,20.00
2019-04-14T15:25:49.267Z,19.87
2019-04-14T15:28:18.998Z,20.53
2019-04-14T15:30:47.778Z,19.70
2019-04-14T15:33:16.578Z,19.77
2019-04-14T15:35:45.444Z,19.73
2019-04-14T15:38:14.265Z,20.10
2019-04-14T15:40:43.166Z,20.03
2019-04-14T15:43:12.019Z,19.53
2019-04-14T15:45:40.915Z,19.27
2019-04-14T15:48:09.820Z,19.10
2019-04-14T15:50:38.663Z,18.73
2019-04-14T15:53:07.521Z,19.30
2019-04-14T15:55:36.506Z,18.50
2019-04-14T15:58:23.234Z,18.67
2019-04-14T16:01:23.515Z,19.03
2019-04-14T16:04:00.825Z,17.50
2019-04-14T16:06:47.642Z,18.50
2019-04-14T16:09:34.508Z,17.77
2019-04-14T16:12:12.107Z,18.63
2019-04-14T16:15:03.229Z,17.53
2019-04-14T16:17:42.332Z,17.97
2019-04-14T16:20:17.834Z,18.37
2019-04-14T16:22:46.696Z,17.60
2019-04-14T16:25:15.500Z,16.70
2019-04-14T16:27:52.275Z,17.73
2019-04-14T16:30:42.984Z,19.33
2019-04-14T16:33:16.500Z,19.33
2019-04-14T16:35:45.794Z,17.00
2019-04-14T16:38:14.542Z,17.33
2019-04-14T16:40:43.444Z,16.57
2019-04-14T16:43:12.436Z,15.47
2019-04-14T16:45:41.187Z,16.07
2019-04-14T16:48:10.011Z,15.90
2019-04-14T16:50:38.911Z,15.77
2019-04-14T16:53:35.818Z,15.27
2019-04-14T16:56:11.968Z,15.90
2019-04-14T16:58:47.585Z,15.97
2019-04-14T17:01:35.595Z,15.80
2019-04-14T17:04:05.087Z,17.17
2019-04-14T17:06:34.029Z,17.33
2019-04-14T17:09:04.768Z,16.20
2019-04-14T17:11:33.514Z,16.70
2019-04-14T17:14:06.567Z,16.60
2019-04-14T17:17:09.980Z,16.60
2019-04-14T17:19:57.277Z,15.30
2019-04-14T17:22:35.080Z,15.87
2019-04-14T17:25:08.699Z,15.80
2019-04-14T17:27:44.948Z,16.00
2019-04-14T17:30:33.974Z,15.63
2019-04-14T17:33:22.553Z,17.13
2019-04-14T17:36:04.153Z,16.77
2019-04-14T17:38:55.456Z,17.63
2019-04-14T17:41:46.442Z,17.30
2019-04-14T17:44:20.569Z,16.50
2019-04-14T17:47:00.029Z,16.67
2019-04-14T17:49:37.110Z,16.87
2019-04-14T17:52:23.515Z,16.43
2019-04-14T17:55:08.499Z,15.30
2019-04-14T17:57:55.261Z,16.27
2019-04-14T18:00:39.799Z,16.30
2019-04-14T18:03:23.562Z,16.30
2019-04-14T18:05:56.024Z,16.80
2019-04-14T18:08:35.893Z,16.77
2019-04-14T18:11:20.858Z,16.93
2019-04-14T18:13:57.197Z,17.13
2019-04-14T18:16:33.998Z,16.07
2019-04-14T18:19:16.726Z,17.50
2019-04-14T18:21:45.461Z,17.67
2019-04-14T18:24:14.153Z,17.53
2019-04-14T18:26:43.022Z,17.60
2019-04-14T18:29:29.764Z,17.00
2019-04-14T18:32:23.952Z,17.50
2019-04-14T18:35:15.072Z,17.67
2019-04-14T18:38:01.592Z,16.67
2019-04-14T18:40:36.116Z,17.03
2019-04-14T18:43:13.908Z,17.07
2019-04-14T18:45:47.739Z,17.53
2019-04-14T18:48:39.229Z,19.17
2019-04-14T18:51:25.698Z,17.73
2019-04-14T18:54:02.021Z,18.27
2019-04-14T18:56:49.970Z,18.40
2019-04-14T18:59:32.987Z,18.43
2019-04-14T19:02:01.830Z,18.30
2019-04-14T19:04:31.015Z,18.13
2019-04-14T19:06:59.974Z,17.80
2019-04-14T19:09:28.848Z,18.27
2019-04-14T19:12:06.373Z,17.90
2019-04-14T19:14:37.918Z,18.70
2019-04-14T19:17:11.048Z,18.50
2019-04-14T19:19:45.503Z,18.33
2019-04-14T19:22:33.912Z,18.23
2019-04-14T19:25:08.240Z,18.90
2019-04-14T19:27:33.297Z,18.30
2019-04-14T19:30:02.393Z,17.97
2019-04-14T19:32:31.177Z,18.30
2019-04-14T19:35:00.086Z,17.83
2019-04-14T19:37:28.929Z,17.63
2019-04-14T19:39:57.970Z,17.70
2019-04-14T19:42:26.802Z,17.73
2019-04-14T19:44:55.632Z,18.20
2019-04-14T19:47:24.530Z,17.57
2019-04-14T19:49:53.400Z,17.60
2019-04-14T19:52:22.359Z,17.80
2019-04-14T19:54:51.339Z,16.17
2019-04-14T19:57:20.643Z,17.13
2019-04-14T19:59:49.439Z,16.60
2019-04-14T20:02:18.547Z,16.73
2019-04-14T20:04:47.505Z,16.33
2019-04-14T20:07:16.497Z,15.67
2019-04-14T20:09:45.483Z,17.30
2019-04-14T20:12:15.636Z,16.93
2019-04-14T20:14:44.495Z,17.13
2019-04-14T20:17:41.835Z,16.83
2019-04-14T20:20:28.679Z,17.67
2019-04-14T20:23:20.497Z,17.03
2019-04-14T20:26:02.611Z,17.47
2019-04-14T20:28:39.018Z,16.57
2019-04-14T20:31:24.800Z,15.93
2019-04-14T20:33:56.205Z,15.80
2019-04-14T20:36:25.086Z,15.37
2019-04-14T20:38:53.963Z,15.50
2019-04-14T20:41:22.964Z,15.23
2019-04-14T20:43:51.859Z,14.47
2019-04-14T20:46:20.882Z,13.23
2019-04-14T20:48:49.761Z,12.47
2019-04-14T20:51:18.585Z,12.10
2019-04-14T20:53:47.496Z,12.27
2019-04-14T20:56:16.254Z,11.33
2019-04-14T20:58:45.063Z,10.60
2019-04-14T21:01:15.192Z,9.90
2019-04-14T21:03:55.602Z,9.73
2019-04-14T21:06:35.859Z,10.63
2019-04-14T21:09:13.940Z,10.17
2019-04-14T21:12:00.826Z,9.73
2019-04-14T21:14:37.209Z,9.60
2019-04-14T21:17:09.069Z,9.53
2019-04-14T21:19:51.310Z,9.50
2019-04-14T21:22:34.991Z,8.40
2019-04-14T21:25:15.620Z,8.73
2019-04-14T21:27:58.990Z,8.83
2019-04-14T21:30:35.821Z,8.23
2019-04-14T21:33:28.249Z,7.90
2019-04-14T21:36:05.811Z,7.77
2019-04-14T21:38:47.478Z,7.17
2019-04-14T21:41:20.159Z,7.17
2019-04-14T21:43:48.926Z,7.70
2019-04-14T21:46:17.794Z,7.60
2019-04-14T21:48:46.764Z,7.20
2019-04-14T21:51:15.578Z,7.27
2019-04-14T21:53:45.150Z,7.70
2019-04-14T21:56:14.011Z,7.60
2019-04-14T21:59:06.960Z,7.37
2019-04-14T22:01:54.543Z,6.93
2019-04-14T22:04:41.650Z,7.20
2019-04-14T22:07:20.635Z,6.73
2019-04-14T22:09:49.686Z,6.70
2019-04-14T22:12:18.576Z,7.17
2019-04-14T22:14:47.542Z,6.90
2019-04-14T22:17:17.185Z,6.93
2019-04-14T22:19:46.105Z,6.53
2019-04-14T22:22:14.981Z,6.13
2019-04-14T22:24:43.783Z,6.57
2019-04-14T22:27:12.607Z,6.17
2019-04-14T22:29:41.571Z,6.20
2019-04-14T22:32:10.354Z,5.90
2019-04-14T22:34:39.410Z,6.47
2019-04-14T22:37:08.238Z,6.93
2019-04-14T22:39:39.212Z,5.70
2019-04-14T22:42:07.574Z,5.87
2019-04-14T22:44:36.469Z,6.00
2019-04-14T22:47:05.417Z,5.80
2019-04-14T22:49:34.169Z,5.93
2019-04-14T22:52:02.969Z,5.40
2019-04-14T22:54:31.779Z,6.00
2019-04-14T22:57:00.632Z,5.30
2019-04-14T22:59:29.514Z,5.10
2019-04-14T23:02:05.989Z,5.10
2019-04-14T23:04:56.827Z,4.83
2019-04-14T23:07:43.675Z,4.93
2019-04-14T23:10:23.976Z,5.00
2019-04-14T23:13:10.014Z,5.03
2019-04-14T23:15:54.873Z,5.00
2019-04-14T23:18:37.442Z,4.87
2019-04-14T23:21:34.663Z,4.83
2019-04-14T23:24:10.126Z,4.60
2019-04-14T23:26:51.464Z,4.70
2019-04-14T23:29:09.430Z,4.00
2019-04-14T23:31:38.169Z,4.63
2019-04-14T23:34:07.172Z,4.47
2019-04-14T23:36:36.028Z,4.30
2019-04-14T23:39:08.792Z,4.57
2019-04-14T23:41:37.520Z,4.70
2019-04-14T23:44:06.537Z,4.37
2019-04-14T23:46:35.374Z,4.20
2019-04-14T23:49:04.521Z,4.00
2019-04-14T23:51:33.425Z,4.27
2019-04-14T23:54:02.257Z,4.77
2019-04-14T23:56:31.157Z,3.97
2019-04-14T23:58:59.977Z,3.90
